sensor_id;sensor_type;location;lat;lon;timestamp;temperature;humidity
15184;DHT22;7693;49.266;7.104;2022-12-05T05:46:36;3.80;99.90
15184;DHT22;7693;49.266;7.104;2022-12-05T05:49:02;3.80;99.90
15184;DHT22;7693;49.266;7.104;2022-12-05T05:51:28;3.80;99.90
15184;DHT22;7693;49.266;7.104;2022-12-05T05:53:55;3.90;99.90
15184;DHT22;7693;49.266;7.104;2022-12-05T05:56:22;3.90;99.90
15184;DHT22;7693;49.266;7.104;2022-12-05T05:58:53;3.90;99.90
15184;DHT22;7693;49.266;7.104;2022-12-05T06:01:19;3.90;99.90
15184;DHT22;7693;49.266;7.104;2022-12-05T06:03:45;4.00;99.90
15184;DHT22;7693;49.266;7.104;2022-12-05T06:06:15;4.00;99.90
15184;DHT22;7693;49.266;7.104;2022-12-05T06:08:42;4.00;99.90
15184;DHT22;7693;49.266;7.104;2022-12-05T06:11:11;4.00;99.90
15184;DHT22;7693;49.266;7.104;2022-12-05T06:13:38;4.10;99.90
15184;DHT22;7693;49.266;7.104;2022-12-05T06:16:06;4.10;99.90
15184;DHT22;7693;49.266;7.104;2022-12-05T06:18:32;4.10;99.90
15184;DHT22;7693;49.266;7.104;2022-12-05T06:20:57;4.10;99.90
15184;DHT22;7693;49.266;7.104;2022-12-05T06:23:24;4.10;99.90
15184;DHT22;7693;49.266;7.104;2022-12-05T06:25:51;4.10;99.90
15184;DHT22;7693;49.266;7.104;2022-12-05T06:28:17;4.10;99.90
15184;DHT22;7693;49.266;7.104;2022-12-05T06:30:43;4.10;99.90
15184;DHT22;7693;49.266;7.104;2022-12-05T06:33:09;4.10;99.90
15184;DHT22;7693;49.266;7.104;2022-12-05T06:35:35;4.10;99.90
15184;DHT22;7693;49.266;7.104;2022-12-05T06:38:00;4.10;99.90
15184;DHT22;7693;49.266;7.104;2022-12-05T06:40:26;4.10;99.90
15184;DHT22;7693;49.266;7.104;2022-12-05T06:42:52;4.10;99.90
15184;DHT22;7693;49.266;7.104;2022-12-05T06:45:17;4.10;99.90
15184;DHT22;7693;49.266;7.104;2022-12-05T06:47:43;4.10;99.90
15184;DHT22;7693;49.266;7.104;2022-12-05T06:50:09;4.10;99.90
15184;DHT22;7693;49.266;7.104;2022-12-05T06:52:35;4.10;99.90
15184;DHT22;7693;49.266;7.104;2022-12-05T06:55:00;4.20;99.90
15184;DHT22;7693;49.266;7.104;2022-12-05T06:57:29;4.20;99.90
15184;DHT22;7693;49.266;7.104;2022-12-05T06:59:55;4.20;99.90
15184;DHT22;7693;49.266;7.104;2022-12-05T07:02:41;4.10;99.90
15184;DHT22;7693;49.266;7.104;2022-12-05T07:05:10;4.20;99.90
15184;DHT22;7693;49.266;7.104;2022-12-05T07:07:36;4.10;99.90
15184;DHT22;7693;49.266;7.104;2022-12-05T07:10:02;4.20;99.90
15184;DHT22;7693;49.266;7.104;2022-12-05T07:12:28;4.20;99.90
15184;DHT22;7693;49.266;7.104;2022-12-05T07:14:54;4.20;99.90
15184;DHT22;7693;49.266;7.104;2022-12-05T07:17:20;4.20;99.90
15184;DHT22;7693;49.266;7.104;2022-12-05T07:19:47;4.20;99.90
15184;DHT22;7693;49.266;7.104;2022-12-05T07:22:14;4.20;99.90
15184;DHT22;7693;49.266;7.104;2022-12-05T07:24:39;4.20;99.90
15184;DHT22;7693;49.266;7.104;2022-12-05T07:27:05;4.20;99.90
15184;DHT22;7693;49.266;7.104;2022-12-05T07:29:31;4.20;99.90
15184;DHT22;7693;49.266;7.104;2022-12-05T07:31:56;4.20;99.90
15184;DHT22;7693;49.266;7.104;2022-12-05T07:34:22;4.20;99.90
15184;DHT22;7693;49.266;7.104;2022-12-05T07:36:47;4.30;99.90
15184;DHT22;7693;49.266;7.104;2022-12-05T07:39:13;4.30;99.90
15184;DHT22;7693;49.266;7.104;2022-12-05T07:41:38;4.30;99.90
15184;DHT22;7693;49.266;7.104;2022-12-05T07:44:04;4.30;99.90
15184;DHT22;7693;49.266;7.104;2022-12-05T07:46:30;4.40;99.90
15184;DHT22;7693;49.266;7.104;2022-12-05T07:48:55;4.50;99.90
15184;DHT22;7693;49.266;7.104;2022-12-05T07:51:22;4.50;99.90
15184;DHT22;7693;49.266;7.104;2022-12-05T07:53:48;4.50;99.90
15184;DHT22;7693;49.266;7.104;2022-12-05T07:56:15;4.50;99.90
15184;DHT22;7693;49.266;7.104;2022-12-05T07:58:42;4.50;99.90
15184;DHT22;7693;49.266;7.104;2022-12-05T08:01:11;4.50;99.90
15184;DHT22;7693;49.266;7.104;2022-12-05T08:03:37;4.50;99.90
15184;DHT22;7693;49.266;7.104;2022-12-05T08:06:06;4.50;99.90
15184;DHT22;7693;49.266;7.104;2022-12-05T08:08:32;4.60;99.90
15184;DHT22;7693;49.266;7.104;2022-12-05T08:13:34;4.60;99.90
15184;DHT22;7693;49.266;7.104;2022-12-05T08:16:04;4.60;99.90
15184;DHT22;7693;49.266;7.104;2022-12-05T08:18:30;4.60;99.90
15184;DHT22;7693;49.266;7.104;2022-12-05T08:21:04;4.60;99.90
15184;DHT22;7693;49.266;7.104;2022-12-05T08:23:30;4.60;99.90
15184;DHT22;7693;49.266;7.104;2022-12-05T08:26:04;4.60;99.90
15184;DHT22;7693;49.266;7.104;2022-12-05T08:28:30;4.70;99.90
15184;DHT22;7693;49.266;7.104;2022-12-05T08:31:09;4.70;99.90
15184;DHT22;7693;49.266;7.104;2022-12-05T08:33:35;4.70;99.90
15184;DHT22;7693;49.266;7.104;2022-12-05T08:36:06;4.70;99.90
15184;DHT22;7693;49.266;7.104;2022-12-05T08:38:32;4.70;99.90
15184;DHT22;7693;49.266;7.104;2022-12-05T08:41:02;4.70;99.90
15184;DHT22;7693;49.266;7.104;2022-12-05T08:43:29;4.70;99.90
15184;DHT22;7693;49.266;7.104;2022-12-05T08:45:55;4.70;99.90
15184;DHT22;7693;49.266;7.104;2022-12-05T08:48:21;4.80;99.90
15184;DHT22;7693;49.266;7.104;2022-12-05T08:50:46;4.80;99.90
15184;DHT22;7693;49.266;7.104;2022-12-05T08:53:12;4.80;99.90
15184;DHT22;7693;49.266;7.104;2022-12-05T08:55:38;4.80;99.90
15184;DHT22;7693;49.266;7.104;2022-12-05T08:58:04;4.80;99.90
15184;DHT22;7693;49.266;7.104;2022-12-05T09:00:29;4.80;99.90
15184;DHT22;7693;49.266;7.104;2022-12-05T09:02:56;4.80;99.90
15184;DHT22;7693;49.266;7.104;2022-12-05T09:05:21;4.80;99.90
15184;DHT22;7693;49.266;7.104;2022-12-05T09:07:47;4.80;99.90
15184;DHT22;7693;49.266;7.104;2022-12-05T09:10:13;4.90;99.90
15184;DHT22;7693;49.266;7.104;2022-12-05T09:12:39;4.90;99.90
15184;DHT22;7693;49.266;7.104;2022-12-05T09:15:06;4.90;99.90
15184;DHT22;7693;49.266;7.104;2022-12-05T09:17:32;4.90;99.90
15184;DHT22;7693;49.266;7.104;2022-12-05T09:19:57;5.00;99.90
15184;DHT22;7693;49.266;7.104;2022-12-05T09:22:23;5.00;99.90
15184;DHT22;7693;49.266;7.104;2022-12-05T09:24:48;5.00;99.90
15184;DHT22;7693;49.266;7.104;2022-12-05T09:27:14;5.00;99.90
15184;DHT22;7693;49.266;7.104;2022-12-05T09:29:40;5.10;99.90
15184;DHT22;7693;49.266;7.104;2022-12-05T09:32:05;5.10;99.90
15184;DHT22;7693;49.266;7.104;2022-12-05T09:34:31;5.10;99.90
15184;DHT22;7693;49.266;7.104;2022-12-05T09:36:57;5.10;99.90
15184;DHT22;7693;49.266;7.104;2022-12-05T09:39:24;5.10;99.90
15184;DHT22;7693;49.266;7.104;2022-12-05T09:50:20;5.10;99.90
15184;DHT22;7693;49.266;7.104;2022-12-05T09:55:40;5.10;99.90
15184;DHT22;7693;49.266;7.104;2022-12-05T10:00:44;5.20;99.90
15184;DHT22;7693;49.266;7.104;2022-12-05T10:03:21;5.20;99.90
15184;DHT22;7693;49.266;7.104;2022-12-05T10:08:41;5.30;99.90
15184;DHT22;7693;49.266;7.104;2022-12-05T10:11:17;5.30;99.90
15184;DHT22;7693;49.266;7.104;2022-12-05T10:16:31;5.30;99.90
15184;DHT22;7693;49.266;7.104;2022-12-05T10:19:02;5.30;99.90
15184;DHT22;7693;49.266;7.104;2022-12-05T10:21:37;5.20;99.90
15184;DHT22;7693;49.266;7.104;2022-12-05T10:27:24;5.30;99.90
15184;DHT22;7693;49.266;7.104;2022-12-05T10:32:30;5.30;99.90
15184;DHT22;7693;49.266;7.104;2022-12-05T10:35:08;5.30;99.90
15184;DHT22;7693;49.266;7.104;2022-12-05T10:37:38;5.30;99.90
15184;DHT22;7693;49.266;7.104;2022-12-05T10:40:04;5.40;99.90
15184;DHT22;7693;49.266;7.104;2022-12-05T10:42:34;5.40;99.90
15184;DHT22;7693;49.266;7.104;2022-12-05T10:45:06;5.40;99.90
15184;DHT22;7693;49.266;7.104;2022-12-05T10:47:33;5.40;99.90
15184;DHT22;7693;49.266;7.104;2022-12-05T10:50:06;5.50;99.90
15184;DHT22;7693;49.266;7.104;2022-12-05T10:52:32;5.50;99.90
15184;DHT22;7693;49.266;7.104;2022-12-05T10:55:03;5.50;99.90
15184;DHT22;7693;49.266;7.104;2022-12-05T10:57:29;5.50;99.90
15184;DHT22;7693;49.266;7.104;2022-12-05T10:59:55;5.50;99.90
15184;DHT22;7693;49.266;7.104;2022-12-05T13:10:51;5.50;99.90
15184;DHT22;7693;49.266;7.104;2022-12-05T13:13:35;5.50;99.90
15184;DHT22;7693;49.266;7.104;2022-12-05T13:16:04;5.50;99.90
15184;DHT22;7693;49.266;7.104;2022-12-05T13:18:32;5.50;99.90
15184;DHT22;7693;49.266;7.104;2022-12-05T13:21:02;5.50;99.90
15184;DHT22;7693;49.266;7.104;2022-12-05T13:23:33;5.50;99.90
15184;DHT22;7693;49.266;7.104;2022-12-05T13:26:00;5.50;99.90
15184;DHT22;7693;49.266;7.104;2022-12-05T13:28:36;5.50;99.90
15184;DHT22;7693;49.266;7.104;2022-12-05T13:31:09;5.50;99.90
15184;DHT22;7693;49.266;7.104;2022-12-05T13:33:47;5.50;99.90
15184;DHT22;7693;49.266;7.104;2022-12-05T13:36:17;5.50;99.90
15184;DHT22;7693;49.266;7.104;2022-12-05T13:39:14;5.50;99.90
15184;DHT22;7693;49.266;7.104;2022-12-05T13:42:01;5.50;99.90
15184;DHT22;7693;49.266;7.104;2022-12-05T13:44:49;5.50;99.90
15184;DHT22;7693;49.266;7.104;2022-12-05T13:52:40;5.50;99.90
15184;DHT22;7693;49.266;7.104;2022-12-05T13:57:51;5.60;99.90
15184;DHT22;7693;49.266;7.104;2022-12-05T14:00:25;5.60;99.90
15184;DHT22;7693;49.266;7.104;2022-12-05T14:02:57;5.60;99.90
15184;DHT22;7693;49.266;7.104;2022-12-05T14:07:53;5.60;99.90
15184;DHT22;7693;49.266;7.104;2022-12-05T14:15:40;5.60;99.90
15184;DHT22;7693;49.266;7.104;2022-12-05T14:23:48;5.60;99.90
15184;DHT22;7693;49.266;7.104;2022-12-05T16:45:53;5.10;99.90
15184;DHT22;7693;49.266;7.104;2022-12-05T16:48:30;5.20;99.90
15184;DHT22;7693;49.266;7.104;2022-12-05T16:51:18;5.20;99.90
15184;DHT22;7693;49.266;7.104;2022-12-05T16:53:55;5.20;99.90
15184;DHT22;7693;49.266;7.104;2022-12-05T16:56:25;5.20;99.90
15184;DHT22;7693;49.266;7.104;2022-12-05T16:58:52;5.30;99.90
15184;DHT22;7693;49.266;7.104;2022-12-05T17:01:23;5.30;99.90
15184;DHT22;7693;49.266;7.104;2022-12-05T17:03:50;5.40;99.90
15184;DHT22;7693;49.266;7.104;2022-12-05T17:06:16;5.40;99.90
15184;DHT22;7693;49.266;7.104;2022-12-05T17:08:43;5.40;99.90
15184;DHT22;7693;49.266;7.104;2022-12-05T17:11:29;5.40;99.90
15184;DHT22;7693;49.266;7.104;2022-12-05T17:14:01;5.40;99.90
15184;DHT22;7693;49.266;7.104;2022-12-05T17:16:27;5.40;99.90
15184;DHT22;7693;49.266;7.104;2022-12-05T17:18:53;5.40;99.90
15184;DHT22;7693;49.266;7.104;2022-12-05T17:21:21;5.50;99.90
15184;DHT22;7693;49.266;7.104;2022-12-05T20:19:35;4.90;99.90
15184;DHT22;7693;49.266;7.104;2022-12-05T20:22:01;4.90;99.90
15184;DHT22;7693;49.266;7.104;2022-12-05T20:24:27;4.90;99.90
15184;DHT22;7693;49.266;7.104;2022-12-05T20:26:52;4.90;99.90
15184;DHT22;7693;49.266;7.104;2022-12-05T20:29:18;4.90;99.90
15184;DHT22;7693;49.266;7.104;2022-12-05T20:31:43;4.90;99.90
15184;DHT22;7693;49.266;7.104;2022-12-05T20:34:10;5.00;99.90
15184;DHT22;7693;49.266;7.104;2022-12-05T20:36:37;5.00;99.90
15184;DHT22;7693;49.266;7.104;2022-12-05T20:39:10;5.00;99.90
15184;DHT22;7693;49.266;7.104;2022-12-05T20:41:37;5.00;99.90
15184;DHT22;7693;49.266;7.104;2022-12-05T20:44:05;5.00;99.90
15184;DHT22;7693;49.266;7.104;2022-12-05T20:46:30;5.00;99.90
15184;DHT22;7693;49.266;7.104;2022-12-05T20:48:57;5.00;99.90
15184;DHT22;7693;49.266;7.104;2022-12-05T20:51:25;5.00;99.90
15184;DHT22;7693;49.266;7.104;2022-12-05T20:53:52;5.10;99.90
15184;DHT22;7693;49.266;7.104;2022-12-05T20:56:23;5.10;99.90
15184;DHT22;7693;49.266;7.104;2022-12-05T20:58:55;5.10;99.90
15184;DHT22;7693;49.266;7.104;2022-12-05T21:01:22;5.10;99.90
15184;DHT22;7693;49.266;7.104;2022-12-05T21:03:49;5.10;99.90
15184;DHT22;7693;49.266;7.104;2022-12-05T21:06:25;5.10;99.90
15184;DHT22;7693;49.266;7.104;2022-12-05T21:08:52;5.10;99.90
15184;DHT22;7693;49.266;7.104;2022-12-05T21:11:18;5.10;99.90
15184;DHT22;7693;49.266;7.104;2022-12-05T21:13:43;5.10;99.90
15184;DHT22;7693;49.266;7.104;2022-12-05T21:16:15;5.10;99.90
15184;DHT22;7693;49.266;7.104;2022-12-05T21:18:42;5.10;99.90
15184;DHT22;7693;49.266;7.104;2022-12-05T21:21:11;5.10;99.90
15184;DHT22;7693;49.266;7.104;2022-12-05T21:23:44;5.00;99.90
15184;DHT22;7693;49.266;7.104;2022-12-05T21:26:15;5.00;99.90
15184;DHT22;7693;49.266;7.104;2022-12-05T21:28:42;5.00;99.90
15184;DHT22;7693;49.266;7.104;2022-12-05T21:31:20;5.00;99.90
15184;DHT22;7693;49.266;7.104;2022-12-05T21:33:49;5.00;99.90
15184;DHT22;7693;49.266;7.104;2022-12-05T21:36:16;5.00;99.90
15184;DHT22;7693;49.266;7.104;2022-12-05T21:38:42;5.00;99.90
15184;DHT22;7693;49.266;7.104;2022-12-05T21:41:07;5.00;99.90
15184;DHT22;7693;49.266;7.104;2022-12-05T21:43:35;4.90;99.90
15184;DHT22;7693;49.266;7.104;2022-12-05T21:46:01;4.90;99.90
15184;DHT22;7693;49.266;7.104;2022-12-05T21:48:27;4.90;99.90
15184;DHT22;7693;49.266;7.104;2022-12-05T21:50:53;4.90;99.90
15184;DHT22;7693;49.266;7.104;2022-12-05T21:53:19;5.10;99.90
15184;DHT22;7693;49.266;7.104;2022-12-05T21:55:46;5.00;99.90
15184;DHT22;7693;49.266;7.104;2022-12-05T21:58:11;5.00;99.90
15184;DHT22;7693;49.266;7.104;2022-12-05T22:00:38;5.00;99.90
15184;DHT22;7693;49.266;7.104;2022-12-05T22:03:04;5.00;99.90
15184;DHT22;7693;49.266;7.104;2022-12-05T22:05:30;5.00;99.90
15184;DHT22;7693;49.266;7.104;2022-12-05T22:07:57;5.10;99.90
15184;DHT22;7693;49.266;7.104;2022-12-05T22:10:23;5.00;99.90
15184;DHT22;7693;49.266;7.104;2022-12-05T22:12:49;5.00;99.90
15184;DHT22;7693;49.266;7.104;2022-12-05T22:15:14;5.00;99.90
15184;DHT22;7693;49.266;7.104;2022-12-05T22:17:40;4.90;99.90
15184;DHT22;7693;49.266;7.104;2022-12-05T22:20:06;5.00;99.90
15184;DHT22;7693;49.266;7.104;2022-12-05T22:22:31;5.00;99.90
15184;DHT22;7693;49.266;7.104;2022-12-05T22:24:59;4.90;99.90
15184;DHT22;7693;49.266;7.104;2022-12-05T22:27:24;4.90;99.90
15184;DHT22;7693;49.266;7.104;2022-12-05T22:29:50;4.90;99.90
15184;DHT22;7693;49.266;7.104;2022-12-05T22:32:15;4.90;99.90
15184;DHT22;7693;49.266;7.104;2022-12-05T22:34:41;4.90;99.90
15184;DHT22;7693;49.266;7.104;2022-12-05T22:37:07;4.80;99.90
15184;DHT22;7693;49.266;7.104;2022-12-05T22:39:32;4.80;99.90
15184;DHT22;7693;49.266;7.104;2022-12-05T22:41:58;4.80;99.90
15184;DHT22;7693;49.266;7.104;2022-12-05T22:44:23;4.80;99.90
15184;DHT22;7693;49.266;7.104;2022-12-05T22:46:49;4.80;99.90
15184;DHT22;7693;49.266;7.104;2022-12-05T22:49:14;4.80;99.90
15184;DHT22;7693;49.266;7.104;2022-12-05T22:51:40;4.90;99.90
15184;DHT22;7693;49.266;7.104;2022-12-05T22:54:06;4.90;99.90
15184;DHT22;7693;49.266;7.104;2022-12-05T22:56:31;4.90;99.90
15184;DHT22;7693;49.266;7.104;2022-12-05T22:58:58;4.90;99.90
15184;DHT22;7693;49.266;7.104;2022-12-05T23:01:31;4.90;99.90
15184;DHT22;7693;49.266;7.104;2022-12-05T23:04:02;4.90;99.90
15184;DHT22;7693;49.266;7.104;2022-12-05T23:06:29;4.90;99.90
15184;DHT22;7693;49.266;7.104;2022-12-05T23:08:55;4.90;99.90
15184;DHT22;7693;49.266;7.104;2022-12-05T23:11:22;4.90;99.90
15184;DHT22;7693;49.266;7.104;2022-12-05T23:13:49;4.90;99.90
15184;DHT22;7693;49.266;7.104;2022-12-05T23:16:17;4.90;99.90
